createdAt,value
2019-01-14T00:00:56.780Z,12.07
2019-01-14T00:03:24.492Z,7.37
2019-01-14T00:05:52.104Z,8.27
2019-01-14T00:08:19.791Z,14.97
2019-01-14T00:10:47.469Z,8.63
2019-01-14T00:13:15.090Z,14.53
2019-01-14T00:15:42.755Z,11.23
2019-01-14T00:18:10.452Z,15.37
2019-01-14T00:20:38.092Z,8.97
2019-01-14T00:23:05.918Z,10.67
2019-01-14T00:25:33.579Z,10.17
2019-01-14T00:28:01.225Z,14.93
2019-01-14T00:30:28.871Z,13.23
2019-01-14T00:32:56.540Z,11.93
2019-01-14T00:35:24.159Z,16.57
2019-01-14T00:37:51.934Z,15.50
2019-01-14T00:40:19.547Z,16.00
2019-01-14T00:42:47.172Z,14.53
2019-01-14T00:45:15.066Z,16.27
2019-01-14T00:47:42.699Z,17.40
2019-01-14T00:50:11.783Z,13.73
2019-01-14T00:52:39.469Z,15.67
2019-01-14T00:55:07.404Z,8.47
2019-01-14T00:57:35.086Z,14.73
2019-01-14T01:00:05.777Z,16.70
2019-01-14T01:02:33.491Z,14.53
2019-01-14T01:05:01.147Z,13.30
2019-01-14T01:07:28.834Z,7.93
2019-01-14T01:09:56.503Z,11.00
2019-01-14T01:12:24.282Z,14.77
2019-01-14T01:14:52.038Z,18.53
2019-01-14T01:17:19.663Z,18.77
2019-01-14T01:19:47.320Z,15.10
2019-01-14T01:22:15.003Z,20.77
2019-01-14T01:24:42.636Z,13.47
2019-01-14T01:27:10.270Z,12.97
2019-01-14T01:29:37.989Z,13.80
2019-01-14T01:32:05.613Z,13.93
2019-01-14T01:34:33.291Z,18.40
2019-01-14T01:37:00.989Z,20.03
2019-01-14T01:39:28.623Z,20.80
2019-01-14T01:41:56.273Z,14.03
2019-01-14T01:44:23.913Z,18.30
2019-01-14T01:46:51.556Z,11.47
2019-01-14T01:49:19.278Z,14.03
2019-01-14T01:51:46.947Z,15.17
2019-01-14T01:54:14.556Z,22.43
2019-01-14T01:56:42.258Z,16.87
2019-01-14T01:59:09.914Z,22.33
2019-01-14T02:01:37.710Z,18.53
2019-01-14T02:04:05.340Z,19.13
2019-01-14T02:06:39.104Z,19.87
2019-01-14T02:09:04.264Z,11.60
2019-01-14T02:11:31.925Z,17.20
2019-01-14T02:13:59.675Z,17.90
2019-01-14T02:16:27.348Z,18.97
2019-01-14T02:18:55.053Z,18.13
2019-01-14T02:21:22.722Z,13.30
2019-01-14T02:23:50.417Z,24.10
2019-01-14T02:26:18.021Z,16.23
2019-01-14T02:28:45.713Z,20.17
2019-01-14T02:31:13.324Z,25.33
2019-01-14T02:33:40.953Z,17.73
2019-01-14T02:36:08.612Z,12.37
2019-01-14T02:38:36.232Z,16.77
2019-01-14T02:41:04.109Z,23.53
2019-01-14T02:43:31.758Z,20.27
2019-01-14T02:45:59.392Z,23.80
2019-01-14T02:48:27.125Z,16.63
2019-01-14T02:50:54.761Z,12.33
2019-01-14T02:53:22.387Z,19.93
2019-01-14T02:55:50.039Z,17.43
2019-01-14T02:58:17.703Z,32.87
2019-01-14T03:00:45.359Z,21.27
2019-01-14T03:03:13.040Z,15.23
2019-01-14T03:05:40.660Z,13.10
2019-01-14T03:08:08.303Z,20.67
2019-01-14T03:10:35.995Z,18.37
2019-01-14T03:13:03.777Z,26.17
2019-01-14T03:15:31.473Z,19.60
2019-01-14T03:17:59.113Z,21.53
2019-01-14T03:20:26.735Z,19.83
2019-01-14T03:22:54.386Z,17.90
2019-01-14T03:25:22.036Z,20.17
2019-01-14T03:27:49.700Z,13.53
2019-01-14T03:30:19.036Z,12.47
2019-01-14T03:32:46.742Z,16.17
2019-01-14T03:35:14.525Z,16.53
2019-01-14T03:37:42.456Z,17.37
2019-01-14T03:40:12.589Z,14.90
2019-01-14T03:42:40.260Z,22.70
2019-01-14T03:45:09.858Z,13.60
2019-01-14T03:47:37.491Z,24.03
2019-01-14T03:50:08.679Z,20.83
2019-01-14T03:52:36.352Z,13.10
2019-01-14T03:55:05.792Z,16.13
2019-01-14T03:57:33.587Z,18.17
2019-01-14T04:00:01.198Z,26.07
2019-01-14T04:02:28.991Z,19.43
2019-01-14T04:04:56.616Z,21.60
2019-01-14T04:07:24.272Z,11.03
2019-01-14T04:09:51.896Z,15.07
2019-01-14T04:12:19.544Z,18.53
2019-01-14T04:14:47.179Z,14.63
2019-01-14T04:17:14.848Z,14.87
2019-01-14T04:19:42.479Z,14.00
2019-01-14T04:22:10.107Z,15.43
2019-01-14T04:24:37.759Z,21.13
2019-01-14T04:27:05.379Z,18.40
2019-01-14T04:29:33.112Z,16.00
2019-01-14T04:32:00.704Z,19.03
2019-01-14T04:34:28.362Z,16.87
2019-01-14T04:36:56.052Z,16.43
2019-01-14T04:39:24.004Z,15.33
2019-01-14T04:41:51.680Z,13.37
2019-01-14T04:44:19.315Z,21.97
2019-01-14T04:46:46.989Z,18.33
2019-01-14T04:49:14.644Z,14.43
2019-01-14T04:51:42.322Z,17.93
2019-01-14T04:54:10.012Z,23.40
2019-01-14T04:56:37.644Z,18.27
2019-01-14T04:59:05.291Z,25.73
2019-01-14T05:01:32.951Z,15.87
2019-01-14T05:04:00.613Z,14.93
2019-01-14T05:06:28.306Z,19.47
2019-01-14T05:08:55.974Z,16.03
2019-01-14T05:11:23.601Z,21.70
2019-01-14T05:13:51.273Z,14.43
2019-01-14T05:16:18.920Z,17.77
2019-01-14T05:18:46.675Z,17.33
2019-01-14T05:21:14.340Z,16.27
2019-01-14T05:23:42.019Z,18.20
2019-01-14T05:26:09.678Z,16.43
2019-01-14T05:28:37.327Z,14.53
2019-01-14T05:31:04.987Z,15.20
2019-01-14T05:33:32.604Z,15.77
2019-01-14T05:36:00.277Z,14.80
2019-01-14T05:38:27.883Z,14.87
2019-01-14T05:40:55.555Z,14.77
2019-01-14T05:43:23.285Z,12.90
2019-01-14T05:45:50.975Z,16.50
2019-01-14T05:48:18.637Z,17.60
2019-01-14T05:50:46.407Z,17.50
2019-01-14T05:53:14.085Z,13.67
2019-01-14T05:55:41.708Z,15.30
2019-01-14T05:58:09.372Z,12.27
2019-01-14T06:00:41.765Z,19.13
2019-01-14T06:03:09.455Z,15.37
2019-01-14T06:05:37.106Z,15.97
2019-01-14T06:08:04.771Z,19.00
2019-01-14T06:10:32.403Z,21.70
2019-01-14T06:13:00.020Z,15.90
2019-01-14T06:15:27.676Z,25.37
2019-01-14T06:17:55.435Z,8.47
2019-01-14T06:20:25.417Z,20.27
2019-01-14T06:22:53.055Z,11.97
2019-01-14T06:25:20.727Z,12.20
2019-01-14T06:27:48.357Z,15.60
2019-01-14T06:30:18.275Z,15.87
2019-01-14T06:32:45.971Z,9.83
2019-01-14T06:35:13.859Z,13.83
2019-01-14T06:37:41.518Z,15.97
2019-01-14T06:40:10.387Z,12.13
2019-01-14T06:42:38.038Z,11.97
2019-01-14T06:45:06.123Z,10.13
2019-01-14T06:47:33.779Z,16.23
2019-01-14T06:50:01.408Z,13.07
2019-01-14T06:52:29.162Z,14.70
2019-01-14T06:54:56.780Z,14.60
2019-01-14T06:57:24.478Z,11.60
2019-01-14T06:59:52.101Z,16.03
2019-01-14T07:02:19.807Z,16.83
2019-01-14T07:04:47.462Z,13.73
2019-01-14T07:07:15.105Z,14.60
2019-01-14T07:09:42.790Z,20.17
2019-01-14T07:12:10.440Z,10.27
2019-01-14T07:14:38.096Z,17.90
2019-01-14T07:17:05.748Z,11.53
2019-01-14T07:19:33.380Z,8.93
2019-01-14T07:22:01.076Z,11.03
2019-01-14T07:24:28.751Z,15.30
2019-01-14T07:26:56.383Z,14.67
2019-01-14T07:29:24.077Z,11.10
2019-01-14T07:31:51.715Z,11.00
2019-01-14T07:34:19.404Z,15.37
2019-01-14T07:36:47.012Z,10.13
2019-01-14T07:39:14.643Z,11.03
2019-01-14T07:41:42.322Z,11.73
2019-01-14T07:44:09.979Z,12.77
2019-01-14T07:46:37.641Z,12.17
2019-01-14T07:49:05.256Z,9.03
2019-01-14T07:51:32.975Z,9.00
2019-01-14T07:54:00.636Z,8.37
2019-01-14T07:56:28.308Z,7.67
2019-01-14T07:58:56.432Z,14.33
2019-01-14T08:01:24.094Z,10.97
2019-01-14T08:03:51.889Z,10.07
2019-01-14T08:06:19.530Z,7.03
2019-01-14T08:08:47.167Z,3.33
2019-01-14T08:11:14.842Z,4.83
2019-01-14T08:13:42.464Z,7.80
2019-01-14T08:16:10.090Z,4.50
2019-01-14T08:18:37.881Z,8.10
2019-01-14T08:21:05.503Z,4.67
2019-01-14T08:23:33.180Z,7.13
2019-01-14T08:26:00.862Z,7.17
2019-01-14T08:28:28.506Z,2.67
2019-01-14T08:30:56.491Z,7.73
2019-01-14T08:33:24.171Z,6.13
2019-01-14T08:35:51.807Z,4.90
2019-01-14T08:38:21.294Z,5.97
2019-01-14T08:40:48.928Z,5.67
2019-01-14T08:43:16.620Z,5.83
2019-01-14T08:45:44.355Z,5.67
2019-01-14T08:48:12.049Z,5.60
2019-01-14T08:50:39.677Z,3.50
2019-01-14T08:53:07.368Z,5.20
2019-01-14T08:55:35.001Z,4.70
2019-01-14T08:58:02.624Z,5.50
2019-01-14T09:00:30.299Z,5.20
2019-01-14T09:02:57.952Z,6.77
2019-01-14T09:05:25.628Z,5.53
2019-01-14T09:07:53.298Z,7.07
2019-01-14T09:10:23.239Z,4.43
2019-01-14T09:12:50.893Z,7.17
2019-01-14T09:15:18.541Z,7.17
2019-01-14T09:17:46.727Z,9.23
2019-01-14T09:20:16.719Z,6.77
2019-01-14T09:22:44.351Z,3.20
2019-01-14T09:25:12.131Z,8.73
2019-01-14T09:27:39.775Z,7.30
2019-01-14T09:30:14.575Z,6.90
2019-01-14T09:32:43.726Z,5.17
2019-01-14T09:35:11.578Z,7.53
2019-01-14T09:37:39.254Z,5.03
2019-01-14T09:40:08.844Z,5.90
2019-01-14T09:42:36.476Z,5.03
2019-01-14T09:45:04.836Z,5.50
2019-01-14T09:47:32.492Z,8.40
2019-01-14T09:50:00.643Z,5.70
2019-01-14T09:52:28.527Z,8.00
2019-01-14T09:54:56.439Z,5.77
2019-01-14T09:57:24.123Z,8.43
2019-01-14T09:59:51.783Z,9.10
2019-01-14T10:02:19.443Z,7.63
2019-01-14T10:04:47.100Z,10.07
2019-01-14T10:07:14.868Z,11.40
2019-01-14T10:09:42.499Z,6.00
2019-01-14T10:12:10.281Z,6.07
2019-01-14T10:14:37.891Z,8.97
2019-01-14T10:17:05.987Z,11.80
2019-01-14T10:19:33.640Z,6.63
2019-01-14T10:22:01.292Z,11.00
2019-01-14T10:24:28.995Z,12.33
2019-01-14T10:26:56.620Z,7.50
2019-01-14T10:29:24.308Z,7.63
2019-01-14T10:31:51.972Z,7.67
2019-01-14T10:34:19.660Z,6.20
2019-01-14T10:36:47.321Z,7.97
2019-01-14T10:39:14.968Z,8.17
2019-01-14T10:41:42.655Z,11.90
2019-01-14T10:44:10.315Z,8.77
2019-01-14T10:46:37.991Z,3.40
2019-01-14T10:49:06.956Z,4.30
2019-01-14T10:51:34.766Z,6.47
2019-01-14T10:54:02.418Z,5.60
2019-01-14T10:56:30.055Z,5.03
2019-01-14T10:58:57.916Z,8.60
2019-01-14T11:01:25.518Z,8.37
2019-01-14T11:03:53.317Z,6.10
2019-01-14T11:06:20.932Z,10.13
2019-01-14T11:08:48.691Z,7.13
2019-01-14T11:11:16.365Z,3.33
2019-01-14T11:13:44.156Z,6.53
2019-01-14T11:16:11.765Z,11.27
2019-01-14T11:18:47.359Z,6.13
2019-01-14T11:21:15.073Z,3.97
2019-01-14T11:23:42.852Z,11.97
2019-01-14T11:26:11.428Z,6.20
2019-01-14T11:28:39.118Z,7.27
2019-01-14T11:31:07.429Z,7.80
2019-01-14T11:33:38.647Z,7.80
2019-01-14T11:36:06.285Z,10.17
2019-01-14T11:38:48.102Z,9.37
2019-01-14T11:41:15.824Z,7.70
2019-01-14T11:43:43.503Z,4.83
2019-01-14T11:46:11.222Z,14.47
2019-01-14T11:48:38.832Z,7.80
2019-01-14T11:51:06.697Z,7.93
2019-01-14T11:53:34.373Z,13.00
2019-01-14T11:56:02.010Z,5.80
2019-01-14T11:58:29.702Z,5.63
2019-01-14T12:00:57.347Z,4.47
2019-01-14T12:03:25.147Z,5.43
2019-01-14T12:05:52.781Z,3.13
2019-01-14T12:08:21.075Z,6.83
2019-01-14T12:10:48.844Z,7.73
2019-01-14T12:13:16.543Z,3.63
2019-01-14T12:15:44.183Z,6.00
2019-01-14T12:18:11.833Z,7.17
2019-01-14T12:20:39.461Z,5.13
2019-01-14T12:23:07.228Z,4.33
2019-01-14T12:25:34.855Z,7.73
2019-01-14T12:28:02.483Z,5.97
2019-01-14T12:30:33.025Z,6.60
2019-01-14T12:33:00.873Z,13.20
2019-01-14T12:35:28.672Z,9.83
2019-01-14T12:37:56.287Z,9.00
2019-01-14T12:40:25.225Z,6.30
2019-01-14T12:42:52.959Z,6.10
2019-01-14T12:45:21.007Z,8.13
2019-01-14T12:47:48.637Z,8.30
2019-01-14T12:50:16.398Z,8.83
2019-01-14T12:52:44.047Z,8.37
2019-01-14T12:55:11.912Z,3.93
2019-01-14T12:57:39.626Z,3.73
2019-01-14T13:00:11.159Z,6.10
2019-01-14T13:02:38.801Z,4.07
2019-01-14T13:05:07.055Z,6.70
2019-01-14T13:07:34.671Z,6.20
2019-01-14T13:10:02.399Z,8.07
2019-01-14T13:12:30.080Z,8.33
2019-01-14T13:14:57.703Z,8.03
2019-01-14T13:17:25.396Z,9.23
2019-01-14T13:19:53.021Z,7.07
2019-01-14T13:22:20.663Z,8.57
2019-01-14T13:24:48.317Z,10.10
2019-01-14T13:27:15.984Z,3.73
2019-01-14T13:29:43.609Z,5.30
2019-01-14T13:32:11.261Z,6.47
2019-01-14T13:34:38.928Z,11.13
2019-01-14T13:37:06.613Z,12.37
2019-01-14T13:39:34.390Z,10.13
2019-01-14T13:42:02.233Z,9.63
2019-01-14T13:44:29.853Z,7.53
2019-01-14T13:46:57.488Z,7.07
2019-01-14T13:49:25.163Z,7.23
2019-01-14T13:51:53.120Z,6.33
2019-01-14T13:54:20.735Z,4.97
2019-01-14T13:56:48.355Z,11.07
2019-01-14T13:59:16.068Z,9.17
2019-01-14T14:01:43.723Z,3.97
2019-01-14T14:04:11.407Z,4.67
2019-01-14T14:06:39.044Z,5.17
2019-01-14T14:09:08.090Z,7.20
2019-01-14T14:11:35.738Z,6.97
2019-01-14T14:14:03.531Z,9.00
2019-01-14T14:16:31.195Z,4.93
2019-01-14T14:18:58.867Z,3.97
2019-01-14T14:21:26.521Z,7.00
2019-01-14T14:23:54.199Z,3.53
2019-01-14T14:26:21.895Z,7.07
2019-01-14T14:28:49.586Z,5.67
2019-01-14T14:31:17.303Z,6.67
2019-01-14T14:33:44.962Z,4.17
2019-01-14T14:36:12.612Z,5.93
2019-01-14T14:38:40.220Z,7.00
2019-01-14T14:41:07.939Z,2.30
2019-01-14T14:43:35.555Z,3.67
2019-01-14T14:46:03.273Z,7.17
2019-01-14T14:48:30.954Z,6.93
2019-01-14T14:50:58.626Z,4.73
2019-01-14T14:53:26.334Z,7.87
2019-01-14T14:55:53.991Z,4.77
2019-01-14T14:58:21.639Z,6.37
2019-01-14T15:00:49.348Z,6.57
2019-01-14T15:03:16.982Z,4.57
2019-01-14T15:05:44.652Z,10.60
2019-01-14T15:08:12.274Z,4.10
2019-01-14T15:10:39.924Z,5.33
2019-01-14T15:13:07.620Z,7.87
2019-01-14T15:15:35.254Z,4.53
2019-01-14T15:18:03.208Z,3.20
2019-01-14T15:20:30.856Z,8.27
2019-01-14T15:22:58.495Z,5.67
2019-01-14T15:25:26.160Z,4.43
2019-01-14T15:27:53.791Z,6.20
2019-01-14T15:30:23.629Z,5.90
2019-01-14T15:32:51.273Z,8.63
2019-01-14T15:35:19.153Z,8.27
2019-01-14T15:37:46.980Z,6.63
2019-01-14T15:40:15.124Z,5.63
2019-01-14T15:42:42.904Z,6.80
2019-01-14T15:45:12.551Z,6.67
2019-01-14T15:47:40.196Z,5.90
2019-01-14T15:50:08.621Z,4.70
2019-01-14T15:52:36.268Z,7.17
2019-01-14T15:55:04.855Z,4.43
2019-01-14T15:57:32.545Z,4.07
2019-01-14T16:00:00.185Z,4.60
2019-01-14T16:02:27.868Z,4.93
2019-01-14T16:04:55.510Z,7.30
2019-01-14T16:07:24.006Z,8.63
2019-01-14T16:09:51.679Z,8.30
2019-01-14T16:12:19.292Z,8.13
2019-01-14T16:14:46.962Z,7.13
2019-01-14T16:17:14.618Z,4.20
2019-01-14T16:19:42.235Z,6.03
2019-01-14T16:22:09.917Z,8.73
2019-01-14T16:24:37.568Z,6.57
2019-01-14T16:27:05.247Z,11.50
2019-01-14T16:29:32.946Z,12.23
2019-01-14T16:32:00.597Z,11.80
2019-01-14T16:34:28.306Z,11.47
2019-01-14T16:36:55.964Z,9.00
2019-01-14T16:39:23.692Z,6.47
2019-01-14T16:41:51.347Z,5.53
2019-01-14T16:44:18.999Z,5.07
2019-01-14T16:46:46.647Z,10.37
2019-01-14T16:49:14.326Z,8.00
2019-01-14T16:51:42.011Z,11.03
2019-01-14T16:54:09.669Z,6.97
2019-01-14T16:56:37.297Z,12.47
2019-01-14T16:59:04.952Z,10.47
2019-01-14T17:01:32.731Z,9.57
2019-01-14T17:04:00.420Z,10.60
2019-01-14T17:06:28.042Z,12.53
2019-01-14T17:08:55.764Z,10.57
2019-01-14T17:11:23.356Z,9.77
2019-01-14T17:13:51.029Z,10.60
2019-01-14T17:16:18.671Z,6.73
2019-01-14T17:18:46.338Z,6.57
2019-01-14T17:21:13.971Z,7.57
2019-01-14T17:23:41.646Z,7.43
2019-01-14T17:26:09.297Z,7.77
2019-01-14T17:28:37.074Z,10.07
2019-01-14T17:31:04.748Z,12.13
2019-01-14T17:33:32.408Z,7.23
2019-01-14T17:36:00.062Z,13.17
2019-01-14T17:38:27.682Z,8.83
2019-01-14T17:40:55.341Z,11.13
2019-01-14T17:43:22.964Z,9.20
2019-01-14T17:45:50.691Z,9.60
2019-01-14T17:48:18.359Z,6.17
2019-01-14T17:50:46.056Z,12.80
2019-01-14T17:53:13.722Z,6.20
2019-01-14T17:55:41.373Z,8.90
2019-01-14T17:58:08.983Z,12.83
2019-01-14T18:00:36.749Z,8.63
2019-01-14T18:03:04.548Z,9.33
2019-01-14T18:05:32.359Z,12.90
2019-01-14T18:07:59.977Z,9.73
2019-01-14T18:10:27.601Z,10.93
2019-01-14T18:12:55.264Z,7.43
2019-01-14T18:15:22.880Z,7.00
2019-01-14T18:17:50.720Z,11.03
2019-01-14T18:20:19.336Z,5.30
2019-01-14T18:22:46.939Z,15.27
2019-01-14T18:25:14.749Z,10.00
2019-01-14T18:27:42.389Z,13.67
2019-01-14T18:30:12.973Z,13.13
2019-01-14T18:32:40.738Z,12.03
2019-01-14T18:35:08.456Z,12.03
2019-01-14T18:37:36.121Z,9.53
2019-01-14T18:40:05.588Z,13.90
2019-01-14T18:42:33.268Z,10.70
2019-01-14T18:45:00.908Z,9.43
2019-01-14T18:47:28.655Z,8.97
2019-01-14T18:49:56.303Z,13.07
2019-01-14T18:52:23.964Z,10.03
2019-01-14T18:54:51.693Z,8.47
2019-01-14T18:57:19.358Z,9.97
2019-01-14T18:59:46.984Z,11.57
2019-01-14T19:02:14.675Z,8.70
2019-01-14T19:04:42.387Z,9.23
2019-01-14T19:07:10.035Z,13.63
2019-01-14T19:09:37.741Z,13.90
2019-01-14T19:12:05.381Z,11.97
2019-01-14T19:14:33.043Z,10.57
2019-01-14T19:17:00.703Z,9.33
2019-01-14T19:19:28.339Z,12.70
2019-01-14T19:21:55.999Z,11.10
2019-01-14T19:24:23.646Z,10.10
2019-01-14T19:26:51.342Z,11.50
2019-01-14T19:29:19.001Z,12.70
2019-01-14T19:31:46.630Z,11.13
2019-01-14T19:34:14.314Z,13.67
2019-01-14T19:36:41.998Z,9.77
2019-01-14T19:39:09.950Z,9.60
2019-01-14T19:41:37.636Z,11.47
2019-01-14T19:44:05.315Z,9.07
2019-01-14T19:46:32.985Z,13.17
2019-01-14T19:49:00.609Z,8.40
2019-01-14T19:51:28.370Z,15.00
2019-01-14T19:53:56.006Z,11.07
2019-01-14T19:56:23.685Z,9.40
2019-01-14T19:58:51.367Z,7.13
2019-01-14T20:01:19.028Z,8.43
2019-01-14T20:03:46.712Z,12.93
2019-01-14T20:06:14.431Z,15.17
2019-01-14T20:08:42.127Z,7.90
2019-01-14T20:11:09.823Z,13.73
2019-01-14T20:13:37.545Z,11.00
2019-01-14T20:16:05.339Z,7.87
2019-01-14T20:18:32.953Z,10.03
2019-01-14T20:21:00.603Z,12.60
2019-01-14T20:23:28.300Z,9.40
2019-01-14T20:25:55.958Z,9.07
2019-01-14T20:28:23.633Z,8.93
2019-01-14T20:30:51.257Z,9.43
2019-01-14T20:33:19.654Z,12.17
2019-01-14T20:35:47.372Z,5.73
2019-01-14T20:38:14.984Z,10.70
2019-01-14T20:40:42.652Z,9.77
2019-01-14T20:43:10.302Z,11.03
2019-01-14T20:45:37.993Z,8.13
2019-01-14T20:48:06.552Z,13.20
2019-01-14T20:50:34.234Z,9.50
2019-01-14T20:53:01.847Z,9.97
2019-01-14T20:55:29.515Z,11.10
2019-01-14T20:57:57.155Z,11.90
2019-01-14T21:00:25.059Z,9.90
2019-01-14T21:02:53.278Z,12.43
2019-01-14T21:05:21.790Z,9.83
2019-01-14T21:07:49.507Z,13.83
2019-01-14T21:10:17.520Z,9.57
2019-01-14T21:12:45.197Z,13.37
2019-01-14T21:15:13.043Z,8.87
2019-01-14T21:17:40.715Z,13.00
2019-01-14T21:20:14.559Z,8.97
2019-01-14T21:22:42.278Z,10.43
2019-01-14T21:25:10.147Z,9.97
2019-01-14T21:27:37.890Z,15.23
2019-01-14T21:30:07.578Z,10.10
2019-01-14T21:32:35.318Z,13.40
2019-01-14T21:35:03.501Z,13.00
2019-01-14T21:37:31.203Z,7.93
2019-01-14T21:39:58.911Z,10.03
2019-01-14T21:42:26.600Z,6.07
2019-01-14T21:44:54.270Z,10.13
2019-01-14T21:47:21.980Z,11.97
2019-01-14T21:49:49.647Z,11.37
2019-01-14T21:52:17.452Z,9.13
2019-01-14T21:54:45.141Z,11.37
2019-01-14T21:57:12.867Z,8.57
2019-01-14T21:59:40.527Z,14.73
2019-01-14T22:02:08.172Z,9.87
2019-01-14T22:04:35.921Z,11.23
2019-01-14T22:07:03.771Z,8.43
2019-01-14T22:09:31.438Z,9.77
2019-01-14T22:11:59.202Z,14.93
2019-01-14T22:14:26.848Z,13.87
2019-01-14T22:16:54.512Z,10.60
2019-01-14T22:19:22.234Z,8.13
2019-01-14T22:21:49.909Z,10.43
2019-01-14T22:24:17.618Z,14.27
2019-01-14T22:26:45.336Z,14.90
2019-01-14T22:29:13.011Z,16.33
2019-01-14T22:31:40.735Z,11.43
2019-01-14T22:34:08.437Z,11.47
2019-01-14T22:36:36.149Z,11.30
2019-01-14T22:39:06.880Z,18.47
2019-01-14T22:41:34.582Z,10.50
2019-01-14T22:44:02.273Z,14.93
2019-01-14T22:46:30.100Z,12.90
2019-01-14T22:48:57.757Z,14.90
2019-01-14T22:51:25.391Z,15.43
2019-01-14T22:53:53.003Z,15.20
2019-01-14T22:56:20.676Z,15.80
2019-01-14T22:58:48.371Z,17.97
2019-01-14T23:01:42.546Z,8.53
2019-01-14T23:04:10.221Z,12.87
2019-01-14T23:06:37.867Z,9.17
2019-01-14T23:09:07.819Z,17.47
2019-01-14T23:11:35.452Z,17.40
2019-01-14T23:14:03.739Z,13.77
2019-01-14T23:16:31.356Z,15.93
2019-01-14T23:18:58.994Z,10.47
2019-01-14T23:21:26.682Z,12.83
2019-01-14T23:23:54.296Z,12.07
2019-01-14T23:26:21.994Z,12.57
2019-01-14T23:28:49.666Z,11.33
2019-01-14T23:31:17.332Z,14.13
2019-01-14T23:33:44.972Z,8.53
2019-01-14T23:36:12.621Z,9.93
2019-01-14T23:38:40.257Z,9.63
2019-01-14T23:41:07.955Z,15.30
2019-01-14T23:43:35.554Z,14.53
2019-01-14T23:46:03.416Z,8.57
2019-01-14T23:48:31.042Z,13.07
2019-01-14T23:50:58.687Z,12.13
2019-01-14T23:53:26.394Z,16.53
2019-01-14T23:55:54.034Z,17.87
2019-01-14T23:58:21.719Z,13.00
